In Rescue
 
Open Full Screen Window  High Contrast Mode
Wind Gusting 00 knots
05
August 09, 2020 6:54 PM CDT
Weather Information
Wind Direction
  290 °
Wind Speed
  05 kt (6 mph)
Wind Gust
  00 kt (0 mph)
Altimeter
29.82 in
Visibility
10 SM
Temperature
31° C
88° F
Dewpoint
22° C
72° F
Humidity
59%
1hr Rain Fall
00.00 in.
24hr Rain Fall
00.06 in.
Sky Condition
Clear
VFR

METAR KCNB 092354Z AUTO 29005KT 10SM CLR 31/22 A2982 RMK AO2 T03100221 10316 20267

FAA Disclaimer: The data displayed is for advisory purposes only and is not to be used for flight planning or operations.